Spooner, Wisconsin
Current Conditions -  °F | °C
As of 9:55 PM on Saturday 22 Nov 2014 (Local Time) from KUBE Reporting Station
Moderate Fog Moderate Fog  
Wind Chill: 26°   Ceiling: 300
Heat Index: 34°   Visibility: 0.5mi
Dew Point: 32°   Wind: 9mph
Humidity: 93%   Direction: 140°SE
Pressure: 29.59"   Gusts: NA
Location:  45.82°N, 91.89°W
Report Text: KUBE 230355Z AUTO 14008KT 1/2SM FG OVC003 01/00 A2959 RMK AO2
Loading
Personal Weather Stations






























Interactive Weather Map New forecast layout! Learn more

10-Day Weather Forecast

Advertisements
Track Severe Weather on mobile